createdAt,value
2022-10-18T00:02:28.406Z,9.83
2022-10-18T00:05:13.390Z,9.64
2022-10-18T00:07:58.350Z,9.65
2022-10-18T00:10:43.809Z,9.65
2022-10-18T00:13:28.863Z,9.77
2022-10-18T00:16:15.650Z,9.84
2022-10-18T00:19:00.662Z,9.85
2022-10-18T00:21:45.880Z,9.87
2022-10-18T00:24:30.841Z,9.69
2022-10-18T00:27:15.674Z,9.60
2022-10-18T00:30:00.779Z,9.58
2022-10-18T00:32:46.043Z,9.53
2022-10-18T00:35:31.096Z,9.48
2022-10-18T00:38:16.186Z,9.38
2022-10-18T00:41:02.754Z,9.20
2022-10-18T00:44:26.897Z,9.30
2022-10-18T00:47:14.266Z,9.27
2022-10-18T00:50:02.975Z,9.05
2022-10-18T00:52:53.378Z,9.16
2022-10-18T00:55:39.325Z,9.26
2022-10-18T00:58:24.824Z,9.31
2022-10-18T01:01:10.268Z,9.28
2022-10-18T01:03:56.369Z,9.19
2022-10-18T01:07:13.823Z,9.21
2022-10-18T01:10:01.706Z,9.26
2022-10-18T01:13:08.031Z,9.24
2022-10-18T01:16:11.888Z,9.15
2022-10-18T01:19:24.284Z,9.06
2022-10-18T01:22:22.564Z,9.15
2022-10-18T01:25:23.554Z,8.99
2022-10-18T01:28:25.900Z,9.02
2022-10-18T01:31:18.696Z,8.93
2022-10-18T01:34:06.549Z,8.87
2022-10-18T01:36:55.384Z,8.81
2022-10-18T01:39:43.574Z,8.77
2022-10-18T01:42:28.594Z,8.79
2022-10-18T01:45:15.461Z,8.92
2022-10-18T01:48:01.934Z,8.84
2022-10-18T01:50:47.598Z,8.78
2022-10-18T01:53:34.896Z,8.74
2022-10-18T01:56:20.083Z,8.69
2022-10-18T01:59:17.698Z,8.64
2022-10-18T02:02:25.766Z,8.54
2022-10-18T02:05:38.888Z,8.71
2022-10-18T02:08:45.448Z,8.63
2022-10-18T02:11:32.769Z,8.69
2022-10-18T02:14:19.480Z,8.69
2022-10-18T02:17:09.577Z,8.67
2022-10-18T02:19:56.455Z,8.59
2022-10-18T02:22:45.877Z,8.58
2022-10-18T02:25:34.138Z,8.50
2022-10-18T02:28:19.335Z,8.52
2022-10-18T02:31:27.188Z,8.47
2022-10-18T02:34:30.677Z,8.39
2022-10-18T02:37:17.558Z,8.21
2022-10-18T02:40:05.025Z,8.30
2022-10-18T02:42:54.211Z,8.26
2022-10-18T02:45:39.700Z,8.22
2022-10-18T02:48:24.594Z,8.24
2022-10-18T02:51:09.624Z,8.28
2022-10-18T02:53:54.769Z,8.11
2022-10-18T02:56:40.005Z,8.19
2022-10-18T02:59:25.048Z,8.23
2022-10-18T03:02:10.033Z,8.23
2022-10-18T03:04:55.292Z,8.09
2022-10-18T03:07:40.429Z,8.08
2022-10-18T03:10:25.646Z,8.03
2022-10-18T03:13:10.643Z,8.06
2022-10-18T03:15:55.750Z,8.04
2022-10-18T03:18:40.948Z,7.85
2022-10-18T03:21:25.799Z,7.86
2022-10-18T03:24:10.729Z,7.85
2022-10-18T03:26:55.646Z,7.78
2022-10-18T03:29:41.044Z,7.79
2022-10-18T03:32:25.961Z,7.81
2022-10-18T03:35:11.005Z,7.84
2022-10-18T03:37:56.001Z,7.83
2022-10-18T03:40:40.900Z,7.79
2022-10-18T03:43:26.063Z,7.73
2022-10-18T03:46:11.218Z,7.69
2022-10-18T03:48:56.120Z,7.49
2022-10-18T03:51:41.099Z,7.48
2022-10-18T03:54:26.430Z,7.55
2022-10-18T03:57:11.521Z,7.49
2022-10-18T03:59:56.341Z,7.52
2022-10-18T04:02:41.769Z,7.46
2022-10-18T04:05:28.565Z,7.42
2022-10-18T04:08:14.644Z,7.36
2022-10-18T04:10:59.579Z,7.37
2022-10-18T04:13:44.584Z,7.40
2022-10-18T04:16:29.575Z,7.34
2022-10-18T04:19:15.670Z,7.27
2022-10-18T04:22:00.627Z,7.28
2022-10-18T04:24:45.493Z,7.16
2022-10-18T04:27:30.764Z,7.21
2022-10-18T04:30:16.480Z,7.10
2022-10-18T04:33:01.714Z,7.19
2022-10-18T04:35:47.391Z,7.23
2022-10-18T04:38:32.309Z,7.24
2022-10-18T04:41:17.254Z,7.26
2022-10-18T04:44:02.111Z,7.19
2022-10-18T04:46:47.242Z,7.05
2022-10-18T04:49:32.702Z,6.96
2022-10-18T04:52:17.799Z,6.95
2022-10-18T04:55:02.905Z,6.93
2022-10-18T04:57:48.122Z,6.89
2022-10-18T05:00:37.788Z,6.93
2022-10-18T05:03:25.250Z,6.99
2022-10-18T05:06:10.449Z,6.97
2022-10-18T05:08:55.420Z,6.85
2022-10-18T05:11:40.377Z,6.62
2022-10-18T05:14:25.490Z,6.76
2022-10-18T05:17:10.889Z,6.63
2022-10-18T05:19:55.921Z,6.67
2022-10-18T05:22:40.848Z,6.49
2022-10-18T05:25:25.809Z,6.40
2022-10-18T05:28:34.069Z,6.60
2022-10-18T05:31:16.382Z,6.60
2022-10-18T05:34:01.955Z,6.65
2022-10-18T05:36:49.263Z,6.52
2022-10-18T05:39:34.376Z,6.61
2022-10-18T05:42:19.538Z,6.64
2022-10-18T05:45:04.729Z,6.67
2022-10-18T05:47:49.854Z,6.57
2022-10-18T05:50:38.065Z,6.56
2022-10-18T05:53:36.355Z,6.45
2022-10-18T05:56:21.967Z,6.54
2022-10-18T05:59:12.030Z,6.38
2022-10-18T06:01:57.769Z,6.55
2022-10-18T06:04:42.722Z,6.53
2022-10-18T06:07:27.687Z,6.45
2022-10-18T06:10:12.763Z,6.44
2022-10-18T06:12:58.076Z,6.42
2022-10-18T06:15:43.057Z,6.55
2022-10-18T06:18:28.032Z,6.60
2022-10-18T06:21:13.407Z,6.63
2022-10-18T06:23:59.431Z,6.63
2022-10-18T06:26:44.815Z,6.55
2022-10-18T06:29:30.130Z,6.59
2022-10-18T06:32:15.670Z,6.47
2022-10-18T06:35:08.509Z,6.58
2022-10-18T06:37:53.603Z,6.58
2022-10-18T06:40:38.850Z,6.53
2022-10-18T06:43:24.552Z,6.51
2022-10-18T06:46:09.976Z,6.34
2022-10-18T06:48:55.375Z,6.51
2022-10-18T06:51:41.713Z,6.51
2022-10-18T06:54:26.668Z,6.52
2022-10-18T06:57:11.933Z,6.51
2022-10-18T06:59:56.917Z,6.57
2022-10-18T07:02:42.205Z,6.57
2022-10-18T07:05:27.620Z,6.55
2022-10-18T07:08:12.712Z,6.53
2022-10-18T07:10:58.009Z,6.45
2022-10-18T07:13:43.094Z,6.57
2022-10-18T07:16:29.217Z,6.50
2022-10-18T07:19:14.969Z,6.28
2022-10-18T07:22:00.104Z,6.50
2022-10-18T07:24:45.110Z,6.55
2022-10-18T07:27:30.245Z,6.64
2022-10-18T07:30:15.601Z,6.72
2022-10-18T07:33:00.749Z,6.93
2022-10-18T07:35:46.138Z,7.00
2022-10-18T07:38:31.702Z,7.02
2022-10-18T07:41:16.628Z,7.01
2022-10-18T07:44:02.859Z,7.01
2022-10-18T07:46:47.691Z,7.03
2022-10-18T07:49:33.096Z,7.10
2022-10-18T07:52:17.987Z,7.05
2022-10-18T07:55:03.029Z,7.17
2022-10-18T07:57:48.605Z,7.11
2022-10-18T08:00:33.955Z,7.35
2022-10-18T08:03:19.564Z,7.36
2022-10-18T08:06:08.028Z,7.47
2022-10-18T08:08:53.259Z,7.65
2022-10-18T08:11:38.684Z,7.67
2022-10-18T08:14:23.958Z,7.69
2022-10-18T08:17:09.246Z,7.77
2022-10-18T08:20:11.574Z,7.70
2022-10-18T08:23:00.063Z,7.97
2022-10-18T08:25:45.857Z,7.95
2022-10-18T08:28:31.124Z,7.90
2022-10-18T08:31:18.746Z,7.91
2022-10-18T08:34:03.855Z,8.18
2022-10-18T08:36:48.805Z,8.26
2022-10-18T08:39:33.876Z,8.21
2022-10-18T08:42:46.294Z,8.36
2022-10-18T08:45:42.378Z,8.41
2022-10-18T08:48:37.111Z,8.46
2022-10-18T08:51:39.370Z,8.55
2022-10-18T08:54:34.686Z,8.75
2022-10-18T08:57:20.222Z,8.93
2022-10-18T09:00:19.787Z,9.08
2022-10-18T09:03:26.022Z,9.16
2022-10-18T09:06:35.723Z,9.26
2022-10-18T09:09:23.589Z,9.36
2022-10-18T09:12:43.820Z,9.49
2022-10-18T09:16:00.858Z,9.63
2022-10-18T09:18:49.338Z,9.77
2022-10-18T09:21:48.895Z,9.89
2022-10-18T09:24:46.065Z,10.03
2022-10-18T09:27:43.745Z,10.19
2022-10-18T09:30:38.641Z,10.35
2022-10-18T09:33:39.275Z,10.54
2022-10-18T09:36:33.571Z,10.71
2022-10-18T09:39:23.031Z,10.89
2022-10-18T09:42:26.439Z,11.09
2022-10-18T09:45:23.963Z,11.27
2022-10-18T09:48:31.180Z,11.45
2022-10-18T09:51:21.981Z,11.56
2022-10-18T09:54:14.212Z,11.80
2022-10-18T09:57:17.747Z,11.94
2022-10-18T10:00:06.742Z,12.09
2022-10-18T10:02:51.793Z,12.09
2022-10-18T10:05:36.882Z,12.20
2022-10-18T10:08:32.343Z,12.39
2022-10-18T10:11:37.830Z,12.53
2022-10-18T10:14:43.841Z,12.76
2022-10-18T10:17:32.185Z,12.90
2022-10-18T10:20:23.401Z,12.98
2022-10-18T10:23:14.666Z,13.09
2022-10-18T10:26:02.632Z,13.13
2022-10-18T10:28:49.026Z,13.23
2022-10-18T10:31:34.814Z,13.30
2022-10-18T10:34:20.479Z,13.49
2022-10-18T10:37:23.757Z,13.53
2022-10-18T10:40:28.647Z,13.57
2022-10-18T10:43:39.359Z,13.88
2022-10-18T10:46:35.133Z,14.04
2022-10-18T10:49:39.570Z,14.20
2022-10-18T10:52:28.957Z,14.32
2022-10-18T10:55:34.933Z,14.46
2022-10-18T10:58:21.628Z,14.60
2022-10-18T11:01:23.625Z,14.73
2022-10-18T11:04:29.357Z,14.90
2022-10-18T11:07:36.516Z,15.10
2022-10-18T11:10:29.685Z,15.04
2022-10-18T11:13:56.990Z,15.33
2022-10-18T11:17:25.260Z,15.53
2022-10-18T11:20:18.398Z,15.63
2022-10-18T11:23:10.596Z,15.82
2022-10-18T11:26:07.332Z,15.92
2022-10-18T11:29:11.006Z,16.11
2022-10-18T11:32:40.826Z,16.30
2022-10-18T11:35:34.802Z,16.39
2022-10-18T11:38:31.154Z,16.48
2022-10-18T11:41:30.790Z,16.79
2022-10-18T11:44:33.414Z,16.90
2022-10-18T11:47:37.520Z,17.05
2022-10-18T11:50:26.135Z,17.16
2022-10-18T11:53:57.799Z,17.31
2022-10-18T11:56:51.593Z,17.44
2022-10-18T11:59:48.882Z,17.52
2022-10-18T12:03:01.989Z,17.53
2022-10-18T12:05:50.047Z,17.78
2022-10-18T12:08:49.335Z,17.99
2022-10-18T12:11:47.410Z,18.04
2022-10-18T12:14:38.899Z,18.17
2022-10-18T12:17:51.115Z,18.30
2022-10-18T12:21:02.353Z,18.35
2022-10-18T12:23:59.596Z,18.38
2022-10-18T12:26:48.550Z,18.37
2022-10-18T12:29:40.078Z,18.38
2022-10-18T12:32:31.810Z,18.65
2022-10-18T12:35:20.061Z,18.77
2022-10-18T12:38:26.726Z,18.72
2022-10-18T12:41:29.166Z,18.88
2022-10-18T12:44:24.296Z,18.94
2022-10-18T12:47:22.601Z,18.86
2022-10-18T12:50:30.100Z,18.96
2022-10-18T12:53:19.323Z,19.09
2022-10-18T12:56:37.876Z,19.03
2022-10-18T12:59:26.683Z,19.09
2022-10-18T13:02:26.515Z,19.38
2022-10-18T13:05:55.282Z,19.44
2022-10-18T13:08:42.979Z,19.48
2022-10-18T13:11:31.310Z,19.36
2022-10-18T13:14:16.847Z,19.37
2022-10-18T13:17:29.886Z,19.41
2022-10-18T13:20:28.273Z,19.62
2022-10-18T13:23:38.268Z,19.57
2022-10-18T13:27:18.083Z,19.65
2022-10-18T13:30:31.454Z,19.56
2022-10-18T13:33:27.440Z,19.49
2022-10-18T13:36:22.872Z,19.62
2022-10-18T13:39:20.096Z,19.60
2022-10-18T13:42:14.268Z,19.55
2022-10-18T13:45:33.470Z,19.51
2022-10-18T13:48:30.757Z,19.62
2022-10-18T13:51:37.024Z,19.62
2022-10-18T13:54:37.388Z,19.55
2022-10-18T13:57:37.446Z,19.49
2022-10-18T14:00:25.309Z,19.52
2022-10-18T14:03:55.065Z,19.71
2022-10-18T14:06:38.313Z,19.75
2022-10-18T14:09:45.277Z,19.82
2022-10-18T14:12:43.732Z,19.82
2022-10-18T14:15:36.504Z,19.99
2022-10-18T14:18:51.302Z,19.95
2022-10-18T14:21:39.959Z,19.93
2022-10-18T14:24:27.396Z,19.91
2022-10-18T14:27:24.529Z,19.92
2022-10-18T14:30:12.546Z,19.90
2022-10-18T14:32:59.495Z,19.90
2022-10-18T14:35:57.899Z,19.91
2022-10-18T14:38:57.913Z,19.81
2022-10-18T14:41:55.163Z,19.86
2022-10-18T14:44:40.506Z,19.86
2022-10-18T14:47:27.890Z,19.87
2022-10-18T14:50:30.234Z,19.36
2022-10-18T14:53:25.083Z,18.96
2022-10-18T14:56:21.781Z,18.92
2022-10-18T14:59:17.567Z,18.99
2022-10-18T15:02:12.665Z,19.04
2022-10-18T15:05:18.510Z,18.93
2022-10-18T15:08:03.869Z,18.72
2022-10-18T15:10:49.575Z,18.58
2022-10-18T15:13:46.773Z,18.35
2022-10-18T15:16:32.741Z,18.15
2022-10-18T15:19:17.748Z,18.04
2022-10-18T15:25:16.915Z,17.67
2022-10-18T15:28:02.185Z,17.52
2022-10-18T15:30:47.321Z,17.45
2022-10-18T15:33:34.738Z,17.40
2022-10-18T15:36:28.116Z,17.30
2022-10-18T15:39:15.045Z,17.18
2022-10-18T15:42:03.424Z,17.12
2022-10-18T15:44:53.726Z,17.07
2022-10-18T15:47:38.647Z,16.99
2022-10-18T15:50:41.009Z,16.89
2022-10-18T15:53:45.194Z,16.93
2022-10-18T15:56:35.233Z,16.84
2022-10-18T15:59:27.017Z,16.80
2022-10-18T16:02:14.681Z,16.72
2022-10-18T16:05:01.554Z,16.53
2022-10-18T16:07:52.010Z,16.56
2022-10-18T16:10:37.970Z,16.44
2022-10-18T16:13:23.346Z,16.36
2022-10-18T16:16:14.284Z,16.30
2022-10-18T16:18:59.732Z,16.23
2022-10-18T16:21:44.885Z,16.02
2022-10-18T16:24:30.013Z,16.12
2022-10-18T16:27:15.131Z,16.03
2022-10-18T16:30:00.295Z,15.92
2022-10-18T16:32:46.394Z,15.83
2022-10-18T16:35:31.720Z,15.78
2022-10-18T16:38:32.700Z,15.72
2022-10-18T16:41:21.042Z,15.65
2022-10-18T16:44:05.919Z,15.55
2022-10-18T16:46:53.870Z,15.46
2022-10-18T16:49:41.236Z,15.43
2022-10-18T16:52:26.459Z,15.37
2022-10-18T16:55:24.719Z,15.27
2022-10-18T16:58:17.903Z,15.16
2022-10-18T17:01:05.427Z,14.96
2022-10-18T17:03:53.978Z,14.87
2022-10-18T17:06:39.219Z,14.95
2022-10-18T17:09:24.513Z,14.88
2022-10-18T17:12:09.686Z,14.81
2022-10-18T17:14:54.554Z,14.75
2022-10-18T17:17:39.823Z,14.59
2022-10-18T17:20:26.359Z,14.49
2022-10-18T17:23:11.715Z,14.55
2022-10-18T17:26:05.598Z,14.52
2022-10-18T17:29:05.890Z,14.34
2022-10-18T17:31:51.252Z,14.36
2022-10-18T17:34:36.495Z,14.38
2022-10-18T17:37:21.614Z,14.33
2022-10-18T17:40:07.914Z,14.21
2022-10-18T17:42:53.965Z,14.16
2022-10-18T17:45:47.949Z,14.15
2022-10-18T17:48:33.210Z,14.11
2022-10-18T17:51:18.434Z,14.02
2022-10-18T17:54:04.926Z,13.93
2022-10-18T17:56:53.909Z,13.91
2022-10-18T17:59:39.767Z,13.86
2022-10-18T18:02:24.753Z,13.83
2022-10-18T18:05:10.059Z,13.74
2022-10-18T18:07:56.859Z,13.77
2022-10-18T18:10:43.566Z,13.76
2022-10-18T18:13:28.823Z,13.72
2022-10-18T18:16:20.576Z,13.65
2022-10-18T18:19:09.679Z,13.66
2022-10-18T18:21:55.726Z,13.61
2022-10-18T18:24:41.122Z,13.64
2022-10-18T18:27:26.012Z,13.62
2022-10-18T18:30:11.151Z,13.61
2022-10-18T18:32:56.160Z,13.60
2022-10-18T18:35:40.988Z,13.64
2022-10-18T18:38:26.407Z,13.48
2022-10-18T18:41:16.377Z,13.56
2022-10-18T18:44:05.022Z,13.56
2022-10-18T18:46:50.419Z,13.51
2022-10-18T18:49:35.765Z,13.56
2022-10-18T18:52:21.042Z,13.56
2022-10-18T18:55:06.626Z,13.55
2022-10-18T18:57:51.555Z,13.40
2022-10-18T19:00:44.254Z,13.59
2022-10-18T19:03:29.725Z,13.57
2022-10-18T19:06:21.552Z,13.59
2022-10-18T19:09:12.367Z,13.56
2022-10-18T19:11:57.560Z,13.59
2022-10-18T19:14:42.733Z,13.57
2022-10-18T19:17:27.798Z,13.52
2022-10-18T19:20:15.175Z,13.53
2022-10-18T19:23:00.396Z,13.42
2022-10-18T19:25:45.328Z,13.49
2022-10-18T19:28:30.637Z,13.45
2022-10-18T19:31:15.735Z,13.49
2022-10-18T19:34:02.802Z,13.46
2022-10-18T19:36:49.114Z,13.40
2022-10-18T19:39:35.094Z,13.41
2022-10-18T19:42:24.258Z,13.38
2022-10-18T19:45:11.457Z,13.37
2022-10-18T19:47:56.362Z,13.34
2022-10-18T19:50:41.408Z,13.32
2022-10-18T19:53:26.632Z,13.33
2022-10-18T19:56:18.267Z,13.33
2022-10-18T19:59:03.908Z,13.34
2022-10-18T20:01:49.025Z,13.34
2022-10-18T20:04:35.098Z,13.35
2022-10-18T20:07:20.318Z,13.25
2022-10-18T20:10:05.956Z,13.38
2022-10-18T20:12:50.961Z,13.38
2022-10-18T20:15:36.067Z,13.39
2022-10-18T20:18:21.399Z,13.40
2022-10-18T20:21:11.632Z,13.37
2022-10-18T20:23:57.034Z,13.46
2022-10-18T20:26:43.661Z,13.43
2022-10-18T20:29:30.100Z,13.33
2022-10-18T20:32:15.221Z,13.34
2022-10-18T20:35:00.178Z,13.32
2022-10-18T20:37:45.602Z,13.34
2022-10-18T20:40:30.511Z,13.34
2022-10-18T20:43:15.438Z,13.35
2022-10-18T20:46:01.399Z,13.37
2022-10-18T20:48:46.658Z,13.37
2022-10-18T20:51:33.617Z,13.33
2022-10-18T20:54:18.653Z,13.34
2022-10-18T20:57:03.988Z,13.35
2022-10-18T20:59:49.397Z,13.33
2022-10-18T21:02:34.705Z,13.31
2022-10-18T21:05:19.868Z,13.31
2022-10-18T21:08:05.175Z,13.28
2022-10-18T21:10:50.498Z,13.27
2022-10-18T21:13:35.813Z,13.17
2022-10-18T21:16:21.511Z,13.27
2022-10-18T21:19:20.422Z,13.23
2022-10-18T21:22:05.475Z,13.11
2022-10-18T21:24:51.142Z,13.16
2022-10-18T21:27:36.329Z,13.11
2022-10-18T21:30:21.287Z,12.95
2022-10-18T21:33:07.908Z,13.08
2022-10-18T21:35:52.751Z,13.07
2022-10-18T21:38:43.039Z,13.04
2022-10-18T21:41:28.167Z,13.04
2022-10-18T21:44:14.209Z,13.02
2022-10-18T21:46:59.182Z,13.01
2022-10-18T21:49:44.118Z,13.02
2022-10-18T21:52:29.145Z,13.01
2022-10-18T21:55:14.206Z,12.91
2022-10-18T21:57:59.415Z,12.95
2022-10-18T22:00:44.540Z,12.96
2022-10-18T22:03:29.584Z,12.84
2022-10-18T22:06:16.163Z,12.90
2022-10-18T22:09:04.816Z,12.86
2022-10-18T22:11:52.415Z,12.76
2022-10-18T22:14:37.686Z,12.74
2022-10-18T22:17:23.605Z,12.75
2022-10-18T22:20:09.571Z,12.79
2022-10-18T22:22:55.620Z,12.71
2022-10-18T22:25:40.761Z,12.58
2022-10-18T22:28:25.783Z,12.76
2022-10-18T22:31:20.816Z,12.62
2022-10-18T22:34:08.470Z,12.65
2022-10-18T22:36:53.875Z,12.55
2022-10-18T22:39:39.120Z,12.50
2022-10-18T22:42:24.411Z,12.57
2022-10-18T22:45:09.690Z,12.47
2022-10-18T22:47:54.982Z,12.57
2022-10-18T22:50:39.949Z,12.45
2022-10-18T22:53:25.443Z,12.52
2022-10-18T22:56:15.221Z,12.50
2022-10-18T22:59:00.220Z,12.47
2022-10-18T23:01:45.128Z,12.46
2022-10-18T23:04:30.138Z,12.30
2022-10-18T23:07:15.042Z,12.36
2022-10-18T23:09:59.985Z,12.17
2022-10-18T23:12:44.808Z,12.35
2022-10-18T23:15:30.177Z,12.39
2022-10-18T23:18:15.199Z,12.36
2022-10-18T23:21:02.069Z,12.32
2022-10-18T23:23:47.532Z,12.25
2022-10-18T23:26:32.765Z,12.21
2022-10-18T23:29:18.055Z,12.20
2022-10-18T23:32:03.352Z,12.20
2022-10-18T23:34:48.704Z,12.17
2022-10-18T23:37:34.210Z,12.19
2022-10-18T23:40:19.737Z,12.17
2022-10-18T23:43:05.005Z,12.12
2022-10-18T23:45:49.855Z,12.11
2022-10-18T23:48:35.646Z,12.14
2022-10-18T23:51:20.683Z,12.07
2022-10-18T23:54:05.818Z,12.06
2022-10-18T23:56:50.924Z,12.00
2022-10-18T23:59:36.001Z,11.95
